sensor_id;sensor_type;location;lat;lon;timestamp;temperature;humidity
57857;DHT22;43683;48.650;9.290;2024-03-08T00:00:14;1.90;92.70
57857;DHT22;43683;48.650;9.290;2024-03-08T00:02:41;2.00;92.70
57857;DHT22;43683;48.650;9.290;2024-03-08T00:05:07;1.90;92.70
57857;DHT22;43683;48.650;9.290;2024-03-08T00:07:35;1.90;92.80
57857;DHT22;43683;48.650;9.290;2024-03-08T00:10:01;1.90;92.80
57857;DHT22;43683;48.650;9.290;2024-03-08T00:12:27;1.80;92.80
57857;DHT22;43683;48.650;9.290;2024-03-08T00:14:53;1.70;92.90
57857;DHT22;43683;48.650;9.290;2024-03-08T00:17:20;1.60;93.00
57857;DHT22;43683;48.650;9.290;2024-03-08T00:19:48;1.50;93.10
57857;DHT22;43683;48.650;9.290;2024-03-08T00:22:15;1.50;93.20
57857;DHT22;43683;48.650;9.290;2024-03-08T00:24:41;1.50;93.20
57857;DHT22;43683;48.650;9.290;2024-03-08T00:27:06;1.50;93.20
57857;DHT22;43683;48.650;9.290;2024-03-08T00:29:34;1.50;93.30
57857;DHT22;43683;48.650;9.290;2024-03-08T00:31:59;1.50;93.30
57857;DHT22;43683;48.650;9.290;2024-03-08T00:34:25;1.40;93.30
57857;DHT22;43683;48.650;9.290;2024-03-08T00:36:51;1.40;93.30
57857;DHT22;43683;48.650;9.290;2024-03-08T00:39:18;1.40;93.30
57857;DHT22;43683;48.650;9.290;2024-03-08T00:41:45;1.40;93.60
57857;DHT22;43683;48.650;9.290;2024-03-08T00:44:11;1.40;93.30
57857;DHT22;43683;48.650;9.290;2024-03-08T00:46:36;1.40;93.30
57857;DHT22;43683;48.650;9.290;2024-03-08T00:49:02;1.40;93.30
57857;DHT22;43683;48.650;9.290;2024-03-08T00:51:27;1.40;93.40
57857;DHT22;43683;48.650;9.290;2024-03-08T00:53:53;1.30;93.40
57857;DHT22;43683;48.650;9.290;2024-03-08T00:56:18;1.20;93.80
57857;DHT22;43683;48.650;9.290;2024-03-08T00:58:44;1.10;93.60
57857;DHT22;43683;48.650;9.290;2024-03-08T01:01:09;0.90;93.80
57857;DHT22;43683;48.650;9.290;2024-03-08T01:03:36;0.90;94.00
57857;DHT22;43683;48.650;9.290;2024-03-08T01:06:01;1.10;93.80
57857;DHT22;43683;48.650;9.290;2024-03-08T01:08:27;1.00;93.80
57857;DHT22;43683;48.650;9.290;2024-03-08T01:10:53;1.10;93.70
57857;DHT22;43683;48.650;9.290;2024-03-08T01:13:19;1.10;93.60
57857;DHT22;43683;48.650;9.290;2024-03-08T01:15:45;1.10;93.60
57857;DHT22;43683;48.650;9.290;2024-03-08T01:18:11;1.10;93.70
57857;DHT22;43683;48.650;9.290;2024-03-08T01:20:36;1.10;94.00
57857;DHT22;43683;48.650;9.290;2024-03-08T01:23:02;1.00;93.70
57857;DHT22;43683;48.650;9.290;2024-03-08T01:25:28;0.90;93.80
57857;DHT22;43683;48.650;9.290;2024-03-08T01:27:54;0.90;93.90
57857;DHT22;43683;48.650;9.290;2024-03-08T01:30:20;0.90;93.90
57857;DHT22;43683;48.650;9.290;2024-03-08T01:32:45;0.90;93.90
57857;DHT22;43683;48.650;9.290;2024-03-08T01:35:11;0.80;94.00
57857;DHT22;43683;48.650;9.290;2024-03-08T01:37:37;0.80;94.10
57857;DHT22;43683;48.650;9.290;2024-03-08T01:40:03;0.70;94.10
57857;DHT22;43683;48.650;9.290;2024-03-08T01:42:29;0.70;94.20
57857;DHT22;43683;48.650;9.290;2024-03-08T01:44:54;0.70;94.30
57857;DHT22;43683;48.650;9.290;2024-03-08T01:47:23;0.70;94.20
57857;DHT22;43683;48.650;9.290;2024-03-08T01:49:52;0.70;94.20
57857;DHT22;43683;48.650;9.290;2024-03-08T01:52:18;0.70;94.20
57857;DHT22;43683;48.650;9.290;2024-03-08T01:54:46;0.70;94.20
57857;DHT22;43683;48.650;9.290;2024-03-08T01:57:12;0.70;94.20
57857;DHT22;43683;48.650;9.290;2024-03-08T01:59:39;0.60;94.20
57857;DHT22;43683;48.650;9.290;2024-03-08T02:02:06;0.60;94.30
57857;DHT22;43683;48.650;9.290;2024-03-08T02:04:34;0.50;94.40
57857;DHT22;43683;48.650;9.290;2024-03-08T02:07:01;0.50;94.40
57857;DHT22;43683;48.650;9.290;2024-03-08T02:09:27;0.50;94.50
57857;DHT22;43683;48.650;9.290;2024-03-08T02:11:53;0.50;94.50
57857;DHT22;43683;48.650;9.290;2024-03-08T02:14:20;0.50;94.50
57857;DHT22;43683;48.650;9.290;2024-03-08T02:16:45;0.60;94.40
57857;DHT22;43683;48.650;9.290;2024-03-08T02:19:11;0.70;94.30
57857;DHT22;43683;48.650;9.290;2024-03-08T02:21:36;0.60;94.30
57857;DHT22;43683;48.650;9.290;2024-03-08T02:24:04;0.60;94.30
57857;DHT22;43683;48.650;9.290;2024-03-08T02:26:29;0.60;94.40
57857;DHT22;43683;48.650;9.290;2024-03-08T02:28:55;0.50;94.80
57857;DHT22;43683;48.650;9.290;2024-03-08T02:31:21;0.40;94.60
57857;DHT22;43683;48.650;9.290;2024-03-08T02:33:47;0.40;94.60
57857;DHT22;43683;48.650;9.290;2024-03-08T02:36:13;0.30;94.70
57857;DHT22;43683;48.650;9.290;2024-03-08T02:38:38;0.20;94.80
57857;DHT22;43683;48.650;9.290;2024-03-08T02:41:06;0.30;94.80
57857;DHT22;43683;48.650;9.290;2024-03-08T02:43:31;0.40;94.70
57857;DHT22;43683;48.650;9.290;2024-03-08T02:45:57;0.40;94.60
57857;DHT22;43683;48.650;9.290;2024-03-08T02:48:22;0.40;94.50
57857;DHT22;43683;48.650;9.290;2024-03-08T02:50:48;0.40;94.60
57857;DHT22;43683;48.650;9.290;2024-03-08T02:53:14;0.30;94.60
57857;DHT22;43683;48.650;9.290;2024-03-08T02:55:40;0.30;94.80
57857;DHT22;43683;48.650;9.290;2024-03-08T02:58:07;0.30;94.80
57857;DHT22;43683;48.650;9.290;2024-03-08T03:00:35;0.20;94.80
57857;DHT22;43683;48.650;9.290;2024-03-08T03:03:01;0.20;94.90
57857;DHT22;43683;48.650;9.290;2024-03-08T03:05:28;0.10;94.90
57857;DHT22;43683;48.650;9.290;2024-03-08T03:07:55;0.20;94.90
57857;DHT22;43683;48.650;9.290;2024-03-08T03:10:21;0.20;94.80
57857;DHT22;43683;48.650;9.290;2024-03-08T03:12:49;0.30;94.70
57857;DHT22;43683;48.650;9.290;2024-03-08T03:15:15;0.30;94.70
57857;DHT22;43683;48.650;9.290;2024-03-08T03:17:48;0.30;94.60
57857;DHT22;43683;48.650;9.290;2024-03-08T03:20:14;0.20;94.70
57857;DHT22;43683;48.650;9.290;2024-03-08T03:22:40;0.10;94.90
57857;DHT22;43683;48.650;9.290;2024-03-08T03:25:08;0.00;95.00
57857;DHT22;43683;48.650;9.290;2024-03-08T03:27:34;0.00;95.00
57857;DHT22;43683;48.650;9.290;2024-03-08T03:30:00;0.00;95.00
57857;DHT22;43683;48.650;9.290;2024-03-08T03:32:46;0.00;94.90
57857;DHT22;43683;48.650;9.290;2024-03-08T03:35:13;0.00;94.90
57857;DHT22;43683;48.650;9.290;2024-03-08T03:37:40;0.00;95.00
57857;DHT22;43683;48.650;9.290;2024-03-08T03:40:08;-0.10;94.90
57857;DHT22;43683;48.650;9.290;2024-03-08T03:42:34;-0.20;95.00
57857;DHT22;43683;48.650;9.290;2024-03-08T03:44:59;-0.20;95.20
57857;DHT22;43683;48.650;9.290;2024-03-08T03:47:25;-0.20;95.20
57857;DHT22;43683;48.650;9.290;2024-03-08T03:49:52;-0.20;95.20
57857;DHT22;43683;48.650;9.290;2024-03-08T03:52:19;-0.20;95.10
57857;DHT22;43683;48.650;9.290;2024-03-08T03:54:44;-0.20;95.10
57857;DHT22;43683;48.650;9.290;2024-03-08T03:57:10;-0.10;95.00
57857;DHT22;43683;48.650;9.290;2024-03-08T03:59:35;-0.20;95.10
57857;DHT22;43683;48.650;9.290;2024-03-08T04:02:01;-0.30;95.30
57857;DHT22;43683;48.650;9.290;2024-03-08T04:04:29;-0.30;95.30
57857;DHT22;43683;48.650;9.290;2024-03-08T04:06:54;-0.30;95.20
57857;DHT22;43683;48.650;9.290;2024-03-08T04:09:20;-0.30;95.30
57857;DHT22;43683;48.650;9.290;2024-03-08T04:11:48;-0.30;95.30
57857;DHT22;43683;48.650;9.290;2024-03-08T04:14:13;-0.30;95.30
57857;DHT22;43683;48.650;9.290;2024-03-08T04:16:39;-0.30;95.30
57857;DHT22;43683;48.650;9.290;2024-03-08T04:19:04;-0.30;95.30
57857;DHT22;43683;48.650;9.290;2024-03-08T04:21:30;-0.30;95.20
57857;DHT22;43683;48.650;9.290;2024-03-08T04:23:56;-0.30;95.20
57857;DHT22;43683;48.650;9.290;2024-03-08T04:26:21;-0.30;95.30
57857;DHT22;43683;48.650;9.290;2024-03-08T04:28:47;-0.30;95.30
57857;DHT22;43683;48.650;9.290;2024-03-08T04:31:12;-0.40;95.60
57857;DHT22;43683;48.650;9.290;2024-03-08T04:33:38;-0.40;95.40
57857;DHT22;43683;48.650;9.290;2024-03-08T04:36:04;-0.60;95.50
57857;DHT22;43683;48.650;9.290;2024-03-08T04:38:30;-0.60;95.60
57857;DHT22;43683;48.650;9.290;2024-03-08T04:40:56;-0.60;95.70
57857;DHT22;43683;48.650;9.290;2024-03-08T04:43:23;-0.60;95.60
57857;DHT22;43683;48.650;9.290;2024-03-08T04:45:52;-0.60;95.60
57857;DHT22;43683;48.650;9.290;2024-03-08T04:48:17;-0.60;95.60
57857;DHT22;43683;48.650;9.290;2024-03-08T04:50:43;-0.60;95.60
57857;DHT22;43683;48.650;9.290;2024-03-08T04:53:10;-0.60;95.60
57857;DHT22;43683;48.650;9.290;2024-03-08T04:55:35;-0.60;95.60
57857;DHT22;43683;48.650;9.290;2024-03-08T04:58:03;-0.50;95.60
57857;DHT22;43683;48.650;9.290;2024-03-08T05:00:29;-0.50;95.50
57857;DHT22;43683;48.650;9.290;2024-03-08T05:02:55;-0.50;95.50
57857;DHT22;43683;48.650;9.290;2024-03-08T05:05:21;-0.50;95.60
57857;DHT22;43683;48.650;9.290;2024-03-08T05:07:48;-0.50;95.70
57857;DHT22;43683;48.650;9.290;2024-03-08T05:10:13;-0.40;95.60
57857;DHT22;43683;48.650;9.290;2024-03-08T05:12:43;-0.50;95.60
57857;DHT22;43683;48.650;9.290;2024-03-08T05:15:08;-0.70;95.80
57857;DHT22;43683;48.650;9.290;2024-03-08T05:17:34;-0.70;96.00
57857;DHT22;43683;48.650;9.290;2024-03-08T05:19:59;-0.70;95.90
57857;DHT22;43683;48.650;9.290;2024-03-08T05:22:25;-0.70;95.90
57857;DHT22;43683;48.650;9.290;2024-03-08T05:24:51;-0.80;95.90
57857;DHT22;43683;48.650;9.290;2024-03-08T05:27:17;-0.90;96.10
57857;DHT22;43683;48.650;9.290;2024-03-08T05:29:43;-1.00;96.10
57857;DHT22;43683;48.650;9.290;2024-03-08T05:32:08;-1.00;96.20
57857;DHT22;43683;48.650;9.290;2024-03-08T05:34:35;-1.10;96.30
57857;DHT22;43683;48.650;9.290;2024-03-08T05:37:01;-1.10;96.30
57857;DHT22;43683;48.650;9.290;2024-03-08T05:39:27;-1.10;96.30
57857;DHT22;43683;48.650;9.290;2024-03-08T05:41:53;-1.00;96.30
57857;DHT22;43683;48.650;9.290;2024-03-08T05:44:20;-1.00;96.20
57857;DHT22;43683;48.650;9.290;2024-03-08T05:46:46;-0.90;96.20
57857;DHT22;43683;48.650;9.290;2024-03-08T05:49:14;-1.00;96.50
57857;DHT22;43683;48.650;9.290;2024-03-08T05:51:40;-1.00;96.20
57857;DHT22;43683;48.650;9.290;2024-03-08T05:54:08;-1.00;96.30
57857;DHT22;43683;48.650;9.290;2024-03-08T05:56:37;-1.10;96.40
57857;DHT22;43683;48.650;9.290;2024-03-08T05:59:03;-1.30;96.40
57857;DHT22;43683;48.650;9.290;2024-03-08T06:01:30;-1.30;96.50
57857;DHT22;43683;48.650;9.290;2024-03-08T06:04:02;-1.30;96.50
57857;DHT22;43683;48.650;9.290;2024-03-08T06:06:27;-1.20;96.50
57857;DHT22;43683;48.650;9.290;2024-03-08T06:08:53;-1.10;96.40
57857;DHT22;43683;48.650;9.290;2024-03-08T06:11:22;-1.10;96.40
57857;DHT22;43683;48.650;9.290;2024-03-08T06:13:48;-1.10;96.40
57857;DHT22;43683;48.650;9.290;2024-03-08T06:16:13;-1.10;96.40
57857;DHT22;43683;48.650;9.290;2024-03-08T06:18:39;-1.10;96.40
57857;DHT22;43683;48.650;9.290;2024-03-08T06:21:05;-1.00;96.50
57857;DHT22;43683;48.650;9.290;2024-03-08T06:23:34;-0.90;96.50
57857;DHT22;43683;48.650;9.290;2024-03-08T06:26:04;-0.80;96.40
57857;DHT22;43683;48.650;9.290;2024-03-08T06:28:30;-0.60;96.60
57857;DHT22;43683;48.650;9.290;2024-03-08T06:30:55;-0.40;96.10
57857;DHT22;43683;48.650;9.290;2024-03-08T06:33:21;-0.30;96.10
57857;DHT22;43683;48.650;9.290;2024-03-08T06:35:46;-0.20;96.10
57857;DHT22;43683;48.650;9.290;2024-03-08T06:38:12;-0.10;96.00
57857;DHT22;43683;48.650;9.290;2024-03-08T06:40:37;0.10;95.90
57857;DHT22;43683;48.650;9.290;2024-03-08T06:43:03;0.30;95.80
57857;DHT22;43683;48.650;9.290;2024-03-08T06:45:32;0.40;95.70
57857;DHT22;43683;48.650;9.290;2024-03-08T06:47:57;0.70;95.50
57857;DHT22;43683;48.650;9.290;2024-03-08T06:50:23;0.90;95.30
57857;DHT22;43683;48.650;9.290;2024-03-08T06:52:48;1.20;95.00
57857;DHT22;43683;48.650;9.290;2024-03-08T06:55:19;1.40;94.80
57857;DHT22;43683;48.650;9.290;2024-03-08T06:57:45;1.60;94.60
57857;DHT22;43683;48.650;9.290;2024-03-08T07:00:11;1.70;94.50
57857;DHT22;43683;48.650;9.290;2024-03-08T07:02:40;1.80;94.40
57857;DHT22;43683;48.650;9.290;2024-03-08T07:05:07;1.90;94.30
57857;DHT22;43683;48.650;9.290;2024-03-08T07:07:35;2.20;94.10
57857;DHT22;43683;48.650;9.290;2024-03-08T07:10:01;2.40;93.90
57857;DHT22;43683;48.650;9.290;2024-03-08T07:12:27;2.50;93.60
57857;DHT22;43683;48.650;9.290;2024-03-08T07:14:52;2.70;93.40
57857;DHT22;43683;48.650;9.290;2024-03-08T07:17:18;2.80;93.20
57857;DHT22;43683;48.650;9.290;2024-03-08T07:19:44;2.90;93.10
57857;DHT22;43683;48.650;9.290;2024-03-08T07:22:10;3.00;93.00
57857;DHT22;43683;48.650;9.290;2024-03-08T07:24:36;3.20;92.90
57857;DHT22;43683;48.650;9.290;2024-03-08T07:27:36;3.30;92.80
57857;DHT22;43683;48.650;9.290;2024-03-08T07:30:02;3.40;92.60
57857;DHT22;43683;48.650;9.290;2024-03-08T07:32:28;3.50;92.50
57857;DHT22;43683;48.650;9.290;2024-03-08T07:34:56;3.60;92.30
57857;DHT22;43683;48.650;9.290;2024-03-08T07:37:22;3.70;92.20
57857;DHT22;43683;48.650;9.290;2024-03-08T07:39:49;3.80;92.00
57857;DHT22;43683;48.650;9.290;2024-03-08T07:42:15;3.90;91.90
57857;DHT22;43683;48.650;9.290;2024-03-08T07:44:42;3.90;91.80
57857;DHT22;43683;48.650;9.290;2024-03-08T07:47:08;3.90;91.70
57857;DHT22;43683;48.650;9.290;2024-03-08T07:49:37;4.00;91.60
57857;DHT22;43683;48.650;9.290;2024-03-08T07:52:04;4.20;91.40
57857;DHT22;43683;48.650;9.290;2024-03-08T07:54:30;4.30;91.30
57857;DHT22;43683;48.650;9.290;2024-03-08T07:56:56;4.40;91.10
57857;DHT22;43683;48.650;9.290;2024-03-08T07:59:21;4.50;90.90
57857;DHT22;43683;48.650;9.290;2024-03-08T08:01:47;4.60;90.70
57857;DHT22;43683;48.650;9.290;2024-03-08T08:04:13;4.60;90.60
57857;DHT22;43683;48.650;9.290;2024-03-08T08:06:40;4.70;90.60
57857;DHT22;43683;48.650;9.290;2024-03-08T08:09:08;4.80;90.40
57857;DHT22;43683;48.650;9.290;2024-03-08T08:11:43;4.80;90.20
57857;DHT22;43683;48.650;9.290;2024-03-08T08:14:09;4.90;90.40
57857;DHT22;43683;48.650;9.290;2024-03-08T08:16:36;5.00;90.00
57857;DHT22;43683;48.650;9.290;2024-03-08T08:19:06;5.00;89.60
57857;DHT22;43683;48.650;9.290;2024-03-08T08:21:36;5.10;89.50
57857;DHT22;43683;48.650;9.290;2024-03-08T08:24:03;5.20;89.10
57857;DHT22;43683;48.650;9.290;2024-03-08T08:26:29;5.40;88.80
57857;DHT22;43683;48.650;9.290;2024-03-08T08:28:55;5.50;88.60
57857;DHT22;43683;48.650;9.290;2024-03-08T08:31:21;5.60;88.30
57857;DHT22;43683;48.650;9.290;2024-03-08T08:33:47;5.70;87.90
57857;DHT22;43683;48.650;9.290;2024-03-08T08:36:17;5.90;87.30
57857;DHT22;43683;48.650;9.290;2024-03-08T08:38:44;6.00;87.00
57857;DHT22;43683;48.650;9.290;2024-03-08T08:41:10;6.00;87.20
57857;DHT22;43683;48.650;9.290;2024-03-08T08:43:37;6.10;86.30
57857;DHT22;43683;48.650;9.290;2024-03-08T08:46:04;6.20;86.30
57857;DHT22;43683;48.650;9.290;2024-03-08T08:48:30;6.20;86.10
57857;DHT22;43683;48.650;9.290;2024-03-08T08:50:57;6.20;86.00
57857;DHT22;43683;48.650;9.290;2024-03-08T08:53:23;6.20;85.70
57857;DHT22;43683;48.650;9.290;2024-03-08T08:55:49;6.20;85.70
57857;DHT22;43683;48.650;9.290;2024-03-08T08:58:16;6.10;85.80
57857;DHT22;43683;48.650;9.290;2024-03-08T09:00:41;6.10;85.70
57857;DHT22;43683;48.650;9.290;2024-03-08T09:03:09;6.20;85.60
57857;DHT22;43683;48.650;9.290;2024-03-08T09:05:36;6.30;85.20
57857;DHT22;43683;48.650;9.290;2024-03-08T09:08:03;6.40;84.90
57857;DHT22;43683;48.650;9.290;2024-03-08T09:10:29;6.30;84.60
57857;DHT22;43683;48.650;9.290;2024-03-08T09:12:55;6.30;84.30
57857;DHT22;43683;48.650;9.290;2024-03-08T09:15:21;6.40;83.90
57857;DHT22;43683;48.650;9.290;2024-03-08T09:17:47;6.40;83.40
57857;DHT22;43683;48.650;9.290;2024-03-08T09:20:13;6.40;83.30
57857;DHT22;43683;48.650;9.290;2024-03-08T09:22:43;6.40;83.10
57857;DHT22;43683;48.650;9.290;2024-03-08T09:25:09;6.40;83.10
57857;DHT22;43683;48.650;9.290;2024-03-08T09:27:35;6.30;83.00
57857;DHT22;43683;48.650;9.290;2024-03-08T09:30:02;6.30;82.90
57857;DHT22;43683;48.650;9.290;2024-03-08T09:32:28;6.40;82.60
57857;DHT22;43683;48.650;9.290;2024-03-08T09:34:54;6.50;82.00
57857;DHT22;43683;48.650;9.290;2024-03-08T09:37:21;6.60;81.70
57857;DHT22;43683;48.650;9.290;2024-03-08T09:39:47;6.50;81.50
57857;DHT22;43683;48.650;9.290;2024-03-08T09:42:15;6.50;81.30
57857;DHT22;43683;48.650;9.290;2024-03-08T09:44:47;6.60;81.10
57857;DHT22;43683;48.650;9.290;2024-03-08T09:47:14;6.70;80.70
57857;DHT22;43683;48.650;9.290;2024-03-08T09:49:40;6.70;80.70
57857;DHT22;43683;48.650;9.290;2024-03-08T09:52:07;6.80;80.20
57857;DHT22;43683;48.650;9.290;2024-03-08T09:54:33;7.00;80.00
57857;DHT22;43683;48.650;9.290;2024-03-08T09:56:59;7.30;79.30
57857;DHT22;43683;48.650;9.290;2024-03-08T09:59:24;7.60;78.70
57857;DHT22;43683;48.650;9.290;2024-03-08T10:01:53;7.70;78.20
57857;DHT22;43683;48.650;9.290;2024-03-08T10:04:22;7.60;78.10
57857;DHT22;43683;48.650;9.290;2024-03-08T10:06:47;7.70;77.80
57857;DHT22;43683;48.650;9.290;2024-03-08T10:09:14;7.60;77.80
57857;DHT22;43683;48.650;9.290;2024-03-08T10:11:42;7.60;77.80
57857;DHT22;43683;48.650;9.290;2024-03-08T10:14:09;7.60;77.60
57857;DHT22;43683;48.650;9.290;2024-03-08T10:16:34;7.70;77.50
57857;DHT22;43683;48.650;9.290;2024-03-08T10:19:00;7.80;77.10
57857;DHT22;43683;48.650;9.290;2024-03-08T10:21:26;8.00;76.80
57857;DHT22;43683;48.650;9.290;2024-03-08T10:23:52;8.20;76.50
57857;DHT22;43683;48.650;9.290;2024-03-08T10:26:18;8.20;76.30
57857;DHT22;43683;48.650;9.290;2024-03-08T10:28:48;8.50;75.90
57857;DHT22;43683;48.650;9.290;2024-03-08T10:31:15;8.70;75.20
57857;DHT22;43683;48.650;9.290;2024-03-08T10:33:40;8.60;75.30
57857;DHT22;43683;48.650;9.290;2024-03-08T10:36:09;8.60;75.40
57857;DHT22;43683;48.650;9.290;2024-03-08T10:38:40;8.70;75.00
57857;DHT22;43683;48.650;9.290;2024-03-08T10:41:07;8.90;74.80
57857;DHT22;43683;48.650;9.290;2024-03-08T10:44:10;9.30;74.20
57857;DHT22;43683;48.650;9.290;2024-03-08T10:47:02;9.50;73.20
57857;DHT22;43683;48.650;9.290;2024-03-08T10:49:32;9.90;73.40
57857;DHT22;43683;48.650;9.290;2024-03-08T10:52:02;10.10;73.30
57857;DHT22;43683;48.650;9.290;2024-03-08T10:54:29;10.10;73.20
57857;DHT22;43683;48.650;9.290;2024-03-08T10:56:57;10.50;73.00
57857;DHT22;43683;48.650;9.290;2024-03-08T10:59:25;10.90;72.80
57857;DHT22;43683;48.650;9.290;2024-03-08T11:01:52;11.60;72.60
57857;DHT22;43683;48.650;9.290;2024-03-08T11:04:18;11.90;71.80
57857;DHT22;43683;48.650;9.290;2024-03-08T11:06:48;11.30;71.40
57857;DHT22;43683;48.650;9.290;2024-03-08T11:09:32;11.40;71.80
57857;DHT22;43683;48.650;9.290;2024-03-08T11:12:22;11.40;71.10
57857;DHT22;43683;48.650;9.290;2024-03-08T11:14:49;11.60;71.60
57857;DHT22;43683;48.650;9.290;2024-03-08T11:17:16;11.40;71.50
57857;DHT22;43683;48.650;9.290;2024-03-08T11:19:47;11.20;71.70
57857;DHT22;43683;48.650;9.290;2024-03-08T11:22:21;11.50;71.00
57857;DHT22;43683;48.650;9.290;2024-03-08T11:24:49;11.20;71.10
57857;DHT22;43683;48.650;9.290;2024-03-08T11:27:15;10.80;70.50
57857;DHT22;43683;48.650;9.290;2024-03-08T11:29:41;11.00;70.40
57857;DHT22;43683;48.650;9.290;2024-03-08T11:32:16;11.00;70.30
57857;DHT22;43683;48.650;9.290;2024-03-08T11:34:48;11.30;69.10
57857;DHT22;43683;48.650;9.290;2024-03-08T11:37:18;11.50;68.60
57857;DHT22;43683;48.650;9.290;2024-03-08T11:39:54;11.60;68.00
57857;DHT22;43683;48.650;9.290;2024-03-08T11:42:25;11.70;67.50
57857;DHT22;43683;48.650;9.290;2024-03-08T11:44:52;12.20;67.50
57857;DHT22;43683;48.650;9.290;2024-03-08T11:47:18;12.60;67.10
57857;DHT22;43683;48.650;9.290;2024-03-08T11:49:45;12.90;66.80
57857;DHT22;43683;48.650;9.290;2024-03-08T11:52:13;12.50;65.50
57857;DHT22;43683;48.650;9.290;2024-03-08T11:54:40;12.40;65.10
57857;DHT22;43683;48.650;9.290;2024-03-08T11:57:06;12.00;66.40
57857;DHT22;43683;48.650;9.290;2024-03-08T11:59:32;11.90;66.10
57857;DHT22;43683;48.650;9.290;2024-03-08T12:02:07;11.60;65.20
57857;DHT22;43683;48.650;9.290;2024-03-08T12:04:35;11.30;65.20
57857;DHT22;43683;48.650;9.290;2024-03-08T12:07:02;11.00;66.00
57857;DHT22;43683;48.650;9.290;2024-03-08T12:09:28;10.80;66.60
57857;DHT22;43683;48.650;9.290;2024-03-08T12:11:54;11.10;66.10
57857;DHT22;43683;48.650;9.290;2024-03-08T12:14:20;11.40;65.60
57857;DHT22;43683;48.650;9.290;2024-03-08T12:16:46;11.20;64.80
57857;DHT22;43683;48.650;9.290;2024-03-08T12:19:12;11.60;65.00
57857;DHT22;43683;48.650;9.290;2024-03-08T12:21:38;11.80;64.70
57857;DHT22;43683;48.650;9.290;2024-03-08T12:24:10;11.90;64.10
57857;DHT22;43683;48.650;9.290;2024-03-08T12:26:37;11.70;64.20
57857;DHT22;43683;48.650;9.290;2024-03-08T12:31:46;12.30;63.40
57857;DHT22;43683;48.650;9.290;2024-03-08T12:34:12;12.00;63.30
57857;DHT22;43683;48.650;9.290;2024-03-08T12:36:50;11.90;63.70
57857;DHT22;43683;48.650;9.290;2024-03-08T12:39:19;12.10;63.20
57857;DHT22;43683;48.650;9.290;2024-03-08T12:41:54;12.30;63.30
57857;DHT22;43683;48.650;9.290;2024-03-08T12:44:22;12.50;63.00
57857;DHT22;43683;48.650;9.290;2024-03-08T12:46:48;12.60;62.70
57857;DHT22;43683;48.650;9.290;2024-03-08T12:49:14;12.70;62.60
57857;DHT22;43683;48.650;9.290;2024-03-08T12:51:44;12.70;62.30
57857;DHT22;43683;48.650;9.290;2024-03-08T12:54:09;12.20;62.00
57857;DHT22;43683;48.650;9.290;2024-03-08T12:56:35;12.10;62.20
57857;DHT22;43683;48.650;9.290;2024-03-08T12:59:06;12.20;62.30
57857;DHT22;43683;48.650;9.290;2024-03-08T13:01:34;12.10;61.60
57857;DHT22;43683;48.650;9.290;2024-03-08T13:04:02;11.90;62.10
57857;DHT22;43683;48.650;9.290;2024-03-08T13:06:28;11.80;61.70
57857;DHT22;43683;48.650;9.290;2024-03-08T13:08:56;11.90;61.60
57857;DHT22;43683;48.650;9.290;2024-03-08T13:11:22;12.10;61.50
57857;DHT22;43683;48.650;9.290;2024-03-08T13:13:51;12.30;61.30
57857;DHT22;43683;48.650;9.290;2024-03-08T13:16:20;12.60;60.80
57857;DHT22;43683;48.650;9.290;2024-03-08T13:18:46;12.50;60.70
57857;DHT22;43683;48.650;9.290;2024-03-08T13:21:14;12.50;60.60
57857;DHT22;43683;48.650;9.290;2024-03-08T13:23:41;12.50;60.40
57857;DHT22;43683;48.650;9.290;2024-03-08T13:26:13;12.50;60.40
57857;DHT22;43683;48.650;9.290;2024-03-08T13:28:42;12.60;60.10
57857;DHT22;43683;48.650;9.290;2024-03-08T13:31:08;12.70;59.70
57857;DHT22;43683;48.650;9.290;2024-03-08T13:33:36;12.70;59.80
57857;DHT22;43683;48.650;9.290;2024-03-08T13:36:11;12.60;59.60
57857;DHT22;43683;48.650;9.290;2024-03-08T13:38:48;12.30;59.50
57857;DHT22;43683;48.650;9.290;2024-03-08T13:41:14;12.10;59.90
57857;DHT22;43683;48.650;9.290;2024-03-08T13:43:41;12.10;60.70
57857;DHT22;43683;48.650;9.290;2024-03-08T13:46:07;12.30;60.50
57857;DHT22;43683;48.650;9.290;2024-03-08T13:48:33;12.40;60.40
57857;DHT22;43683;48.650;9.290;2024-03-08T13:50:59;12.50;59.80
57857;DHT22;43683;48.650;9.290;2024-03-08T13:53:27;12.20;59.60
57857;DHT22;43683;48.650;9.290;2024-03-08T13:55:52;12.40;59.70
57857;DHT22;43683;48.650;9.290;2024-03-08T13:58:18;12.50;59.70
57857;DHT22;43683;48.650;9.290;2024-03-08T14:00:45;12.50;59.50
57857;DHT22;43683;48.650;9.290;2024-03-08T14:03:13;12.40;59.50
57857;DHT22;43683;48.650;9.290;2024-03-08T14:05:42;12.30;60.10
57857;DHT22;43683;48.650;9.290;2024-03-08T14:08:10;11.90;59.80
57857;DHT22;43683;48.650;9.290;2024-03-08T14:10:37;12.00;60.10
57857;DHT22;43683;48.650;9.290;2024-03-08T14:13:04;12.20;60.10
57857;DHT22;43683;48.650;9.290;2024-03-08T14:15:33;12.30;59.80
57857;DHT22;43683;48.650;9.290;2024-03-08T14:18:00;12.50;59.70
57857;DHT22;43683;48.650;9.290;2024-03-08T14:20:27;12.40;59.40
57857;DHT22;43683;48.650;9.290;2024-03-08T14:22:56;12.30;59.80
57857;DHT22;43683;48.650;9.290;2024-03-08T14:25:22;12.20;59.00
57857;DHT22;43683;48.650;9.290;2024-03-08T14:27:49;12.40;59.00
57857;DHT22;43683;48.650;9.290;2024-03-08T14:30:15;12.50;58.70
57857;DHT22;43683;48.650;9.290;2024-03-08T14:33:07;12.20;58.60
57857;DHT22;43683;48.650;9.290;2024-03-08T14:35:35;12.20;58.70
57857;DHT22;43683;48.650;9.290;2024-03-08T14:38:01;12.50;59.00
57857;DHT22;43683;48.650;9.290;2024-03-08T14:40:27;12.60;58.90
57857;DHT22;43683;48.650;9.290;2024-03-08T14:42:52;12.50;59.00
57857;DHT22;43683;48.650;9.290;2024-03-08T14:45:19;12.80;59.00
57857;DHT22;43683;48.650;9.290;2024-03-08T14:47:48;13.00;58.80
57857;DHT22;43683;48.650;9.290;2024-03-08T14:50:24;12.90;58.50
57857;DHT22;43683;48.650;9.290;2024-03-08T14:52:50;13.00;58.50
57857;DHT22;43683;48.650;9.290;2024-03-08T14:55:20;13.00;57.90
57857;DHT22;43683;48.650;9.290;2024-03-08T14:57:50;12.80;57.70
57857;DHT22;43683;48.650;9.290;2024-03-08T15:00:18;12.70;57.40
57857;DHT22;43683;48.650;9.290;2024-03-08T15:02:55;12.50;57.20
57857;DHT22;43683;48.650;9.290;2024-03-08T15:05:22;12.20;57.60
57857;DHT22;43683;48.650;9.290;2024-03-08T15:07:55;12.40;57.90
57857;DHT22;43683;48.650;9.290;2024-03-08T15:10:21;12.50;57.90
57857;DHT22;43683;48.650;9.290;2024-03-08T15:12:50;12.60;57.80
57857;DHT22;43683;48.650;9.290;2024-03-08T15:15:18;12.80;58.10
57857;DHT22;43683;48.650;9.290;2024-03-08T15:17:44;12.90;58.30
57857;DHT22;43683;48.650;9.290;2024-03-08T15:20:12;13.10;58.20
57857;DHT22;43683;48.650;9.290;2024-03-08T15:22:48;13.20;58.00
57857;DHT22;43683;48.650;9.290;2024-03-08T15:25:13;13.30;57.70
57857;DHT22;43683;48.650;9.290;2024-03-08T15:27:46;13.40;57.90
57857;DHT22;43683;48.650;9.290;2024-03-08T15:30:12;13.30;58.10
57857;DHT22;43683;48.650;9.290;2024-03-08T15:32:43;13.00;58.20
57857;DHT22;43683;48.650;9.290;2024-03-08T15:35:09;12.90;58.10
57857;DHT22;43683;48.650;9.290;2024-03-08T15:37:39;12.90;58.30
57857;DHT22;43683;48.650;9.290;2024-03-08T15:40:09;12.90;58.40